createdAt,value
2023-05-16T00:00:43.911Z,85808.19
2023-05-16T00:03:12.437Z,85853.22
2023-05-16T00:05:39.612Z,85825.44
2023-05-16T00:08:06.674Z,85856.38
2023-05-16T00:10:33.752Z,85777.97
2023-05-16T00:13:02.254Z,85813.28
2023-05-16T00:15:30.249Z,85520.72
2023-05-16T00:18:00.431Z,85766.97
2023-05-16T00:20:28.885Z,85814.88
2023-05-16T00:22:56.414Z,85790.41
2023-05-16T00:25:23.435Z,85810.19
2023-05-16T00:27:50.590Z,85811.72
2023-05-16T00:30:17.701Z,85807.56
2023-05-16T00:32:44.848Z,85744.59
2023-05-16T00:35:12.708Z,85735.06
2023-05-16T00:37:39.825Z,85841.78
2023-05-16T00:40:07.713Z,85772.00
2023-05-16T00:42:36.176Z,85831.97
2023-05-16T00:45:05.009Z,85673.63
2023-05-16T00:47:32.613Z,85807.44
2023-05-16T00:49:59.674Z,85834.19
2023-05-16T00:52:26.808Z,85807.63
2023-05-16T00:54:54.193Z,85817.09
2023-05-16T00:57:21.552Z,85791.44
2023-05-16T00:59:48.914Z,85833.44
2023-05-16T01:02:17.705Z,85820.75
2023-05-16T01:04:48.408Z,85753.75
2023-05-16T01:07:15.609Z,85787.56
2023-05-16T01:09:42.711Z,85712.47
2023-05-16T01:12:16.347Z,85698.84
2023-05-16T01:14:49.299Z,85820.13
2023-05-16T01:17:33.911Z,85757.59
2023-05-16T01:20:05.221Z,85746.69
2023-05-16T01:22:51.610Z,85789.63
2023-05-16T01:25:48.324Z,85818.66
2023-05-16T01:28:17.722Z,85778.50
2023-05-16T01:30:45.213Z,85764.53
2023-05-16T01:33:12.570Z,85764.41
2023-05-16T01:35:59.827Z,85765.63
2023-05-16T01:38:33.372Z,85733.88
2023-05-16T01:41:13.260Z,85664.56
2023-05-16T01:43:46.662Z,85788.13
2023-05-16T01:46:16.826Z,85654.00
2023-05-16T01:48:47.936Z,85740.50
2023-05-16T01:51:15.092Z,85620.72
2023-05-16T01:53:45.472Z,85773.69
2023-05-16T01:56:16.847Z,85735.94
2023-05-16T01:58:44.980Z,85739.63
2023-05-16T02:01:13.824Z,85773.69
2023-05-16T02:03:40.798Z,85767.28
2023-05-16T02:06:08.152Z,85737.19
2023-05-16T02:08:35.329Z,85744.47
2023-05-16T02:11:02.332Z,85714.22
2023-05-16T02:13:29.372Z,85754.97
2023-05-16T02:15:56.431Z,85731.19
2023-05-16T02:18:23.855Z,85748.41
2023-05-16T02:20:51.132Z,85704.44
2023-05-16T02:23:18.354Z,85646.59
2023-05-16T02:25:45.250Z,85706.81
2023-05-16T02:28:12.248Z,85734.34
2023-05-16T02:30:39.398Z,85684.00
2023-05-16T02:33:06.497Z,85738.28
2023-05-16T02:35:33.740Z,85721.78
2023-05-16T02:38:00.794Z,85615.72
2023-05-16T02:40:28.359Z,85697.06
2023-05-16T02:42:56.575Z,85697.00
2023-05-16T02:45:23.887Z,85712.53
2023-05-16T02:47:51.013Z,85747.06
2023-05-16T02:50:18.986Z,85690.66
2023-05-16T02:52:46.210Z,85692.66
2023-05-16T02:57:43.536Z,85748.75
2023-05-16T03:00:13.078Z,85741.69
2023-05-16T03:02:40.226Z,85648.09
2023-05-16T03:05:08.803Z,85678.34
2023-05-16T03:07:36.418Z,85668.22
2023-05-16T03:10:06.290Z,85736.22
2023-05-16T03:12:33.242Z,85736.56
2023-05-16T03:15:00.185Z,85719.91
2023-05-16T03:17:27.371Z,85742.94
2023-05-16T03:19:54.506Z,85684.25
2023-05-16T03:22:21.554Z,85636.16
2023-05-16T03:24:48.850Z,85552.19
2023-05-16T03:27:16.234Z,85756.69
2023-05-16T03:29:43.239Z,85690.19
2023-05-16T03:32:11.957Z,85759.41
2023-05-16T03:34:38.969Z,85756.50
2023-05-16T03:37:06.739Z,85754.44
2023-05-16T03:39:34.024Z,85674.03
2023-05-16T03:42:01.120Z,85713.38
2023-05-16T03:44:28.153Z,85710.63
2023-05-16T03:46:56.278Z,85411.81
2023-05-16T03:49:28.594Z,85584.75
2023-05-16T03:51:55.941Z,85438.69
2023-05-16T03:54:23.094Z,85723.63
2023-05-16T03:56:50.150Z,85722.41
2023-05-16T03:59:17.145Z,85676.81
2023-05-16T04:01:44.437Z,85710.00
2023-05-16T04:04:11.334Z,85728.66
2023-05-16T04:06:38.261Z,85627.59
2023-05-16T04:09:06.648Z,85751.47
2023-05-16T04:11:34.379Z,85747.25
2023-05-16T04:14:01.927Z,85737.91
2023-05-16T04:16:29.401Z,85747.75
2023-05-16T04:18:56.932Z,85724.38
2023-05-16T04:21:24.033Z,85755.13
2023-05-16T04:23:51.198Z,85764.91
2023-05-16T04:26:18.321Z,85696.66
2023-05-16T04:28:45.306Z,85697.88
2023-05-16T04:31:14.478Z,85718.72
2023-05-16T04:33:41.669Z,85752.94
2023-05-16T04:36:12.605Z,85756.06
2023-05-16T04:38:39.675Z,85745.19
2023-05-16T04:41:06.761Z,85714.47
2023-05-16T04:43:33.877Z,85692.28
2023-05-16T04:46:01.433Z,85738.72
2023-05-16T04:48:28.480Z,85768.06
2023-05-16T04:50:55.736Z,85760.03
2023-05-16T04:53:22.785Z,85693.91
2023-05-16T04:55:49.746Z,85744.09
2023-05-16T04:58:16.881Z,85756.75
2023-05-16T05:00:43.964Z,85680.34
2023-05-16T05:03:11.143Z,85610.03
2023-05-16T05:05:38.264Z,85750.78
2023-05-16T05:08:05.546Z,85750.78
2023-05-16T05:10:32.510Z,85757.31
2023-05-16T05:12:59.621Z,85645.47
2023-05-16T05:15:26.868Z,85593.75
2023-05-16T05:17:54.376Z,85713.31
2023-05-16T05:20:21.842Z,85727.50
2023-05-16T05:22:49.028Z,85739.22
2023-05-16T05:25:16.103Z,85497.41
2023-05-16T05:27:43.177Z,85670.88
2023-05-16T05:30:10.639Z,85743.84
2023-05-16T05:32:37.949Z,85731.88
2023-05-16T05:35:05.537Z,85739.00
2023-05-16T05:37:32.738Z,85744.53
2023-05-16T05:39:59.916Z,85740.28
2023-05-16T05:42:26.907Z,85744.38
2023-05-16T05:44:54.052Z,85745.72
2023-05-16T05:47:21.848Z,85708.34
2023-05-16T05:49:49.224Z,85740.38
2023-05-16T05:52:16.496Z,85699.91
2023-05-16T05:54:43.610Z,85755.00
2023-05-16T05:57:10.692Z,85591.28
2023-05-16T05:59:37.713Z,85543.47
2023-05-16T06:02:05.093Z,85623.91
2023-05-16T06:04:32.069Z,85723.63
2023-05-16T06:06:59.434Z,85728.28
2023-05-16T06:09:26.600Z,85615.09
2023-05-16T06:11:53.592Z,85532.59
2023-05-16T06:14:20.667Z,85695.31
2023-05-16T06:16:47.749Z,85596.44
2023-05-16T06:19:16.649Z,85649.19
2023-05-16T06:21:44.181Z,85686.38
2023-05-16T06:24:12.553Z,85617.88
2023-05-16T06:26:39.771Z,85584.03
2023-05-16T06:29:06.801Z,85763.63
2023-05-16T06:31:33.830Z,85738.75
2023-05-16T06:34:01.042Z,85753.34
2023-05-16T06:36:28.083Z,85729.59
2023-05-16T06:38:55.139Z,85740.84
2023-05-16T06:41:22.439Z,85697.09
2023-05-16T06:43:49.707Z,85570.34
2023-05-16T06:46:16.947Z,85638.63
2023-05-16T06:48:44.078Z,85733.88
2023-05-16T06:51:11.223Z,85496.38
2023-05-16T06:53:38.410Z,85508.97
2023-05-16T06:56:05.988Z,85552.66
2023-05-16T06:58:33.318Z,85475.91
2023-05-16T07:01:00.640Z,85633.16
2023-05-16T07:03:29.275Z,85637.91
2023-05-16T07:05:57.411Z,85560.44
2023-05-16T07:08:25.931Z,85733.56
2023-05-16T07:10:52.964Z,85667.63
2023-05-16T07:13:20.198Z,85558.47
2023-05-16T07:15:47.250Z,85753.78
2023-05-16T07:18:14.513Z,85640.97
2023-05-16T07:20:42.007Z,85745.81
2023-05-16T07:23:09.048Z,85728.06
2023-05-16T07:25:36.966Z,85735.13
2023-05-16T07:28:04.452Z,85734.69
2023-05-16T07:30:31.752Z,85687.47
2023-05-16T07:32:59.394Z,85726.13
2023-05-16T07:35:26.782Z,85696.16
2023-05-16T07:37:54.321Z,85709.91
2023-05-16T07:40:26.014Z,85566.38
2023-05-16T07:42:53.082Z,85616.09
2023-05-16T07:45:20.209Z,85725.22
2023-05-16T07:47:47.419Z,85651.97
2023-05-16T07:50:14.787Z,85721.72
2023-05-16T07:52:41.844Z,85638.88
2023-05-16T07:55:09.534Z,85685.19
2023-05-16T07:57:36.943Z,85686.47
2023-05-16T08:00:04.492Z,85691.38
2023-05-16T08:02:38.975Z,85727.06
2023-05-16T08:05:06.811Z,85531.16
2023-05-16T08:07:34.001Z,85691.56
2023-05-16T08:10:01.209Z,85719.22
2023-05-16T08:12:28.408Z,85594.16
2023-05-16T08:14:55.633Z,85717.38
2023-05-16T08:17:23.069Z,85697.25
2023-05-16T08:19:50.305Z,85608.91
2023-05-16T08:22:17.410Z,85695.09
2023-05-16T08:24:44.596Z,85628.88
2023-05-16T08:27:12.360Z,85649.00
2023-05-16T08:29:39.539Z,85702.94
2023-05-16T08:32:06.927Z,85718.94
2023-05-16T08:34:34.201Z,85699.94
2023-05-16T08:37:01.498Z,85636.59
2023-05-16T08:39:30.767Z,85650.16
2023-05-16T08:41:59.047Z,85671.66
2023-05-16T08:44:26.767Z,85680.50
2023-05-16T08:46:54.543Z,85657.75
2023-05-16T08:49:21.684Z,85748.91
2023-05-16T08:51:51.796Z,85747.84
2023-05-16T08:54:18.973Z,85732.03
2023-05-16T08:56:46.727Z,85735.50
2023-05-16T08:59:14.155Z,85653.94
2023-05-16T09:01:41.915Z,85691.03
2023-05-16T09:04:10.506Z,85689.78
2023-05-16T09:06:38.069Z,85717.19
2023-05-16T09:09:08.254Z,85707.50
2023-05-16T09:11:37.143Z,85672.34
2023-05-16T09:14:05.873Z,85738.53
2023-05-16T09:16:33.163Z,85693.06
2023-05-16T09:19:02.186Z,85689.56
2023-05-16T09:21:32.159Z,85601.78
2023-05-16T09:24:09.516Z,85668.19
2023-05-16T09:26:38.730Z,85681.22
2023-05-16T09:29:14.686Z,85650.72
2023-05-16T09:31:41.962Z,85709.72
2023-05-16T09:34:15.806Z,85736.13
2023-05-16T09:36:44.100Z,85742.47
2023-05-16T09:39:12.412Z,85680.97
2023-05-16T09:41:39.450Z,85699.09
2023-05-16T09:44:07.127Z,85716.91
2023-05-16T09:46:35.164Z,85701.00
2023-05-16T09:49:03.261Z,85706.34
2023-05-16T09:51:30.331Z,85726.78
2023-05-16T09:53:59.271Z,85708.28
2023-05-16T09:56:26.241Z,85658.13
2023-05-16T09:58:53.503Z,85696.75
2023-05-16T10:01:21.089Z,85654.88
2023-05-16T10:03:48.628Z,85646.25
2023-05-16T10:06:16.837Z,85591.06
2023-05-16T10:08:44.616Z,85671.78
2023-05-16T10:11:12.364Z,85672.25
2023-05-16T10:13:39.928Z,85669.81
2023-05-16T10:16:11.959Z,85660.84
2023-05-16T10:18:40.648Z,85697.50
2023-05-16T10:21:14.800Z,85478.06
2023-05-16T10:23:43.752Z,85538.00
2023-05-16T10:26:14.368Z,85537.09
2023-05-16T10:28:42.698Z,85495.38
2023-05-16T10:31:11.586Z,85674.28
2023-05-16T10:33:39.871Z,85653.44
2023-05-16T10:36:09.621Z,85637.19
2023-05-16T10:38:38.843Z,85672.81
2023-05-16T10:41:07.746Z,85610.63
2023-05-16T10:43:34.932Z,85592.72
2023-05-16T10:46:07.928Z,85591.19
2023-05-16T10:48:40.043Z,85639.97
2023-05-16T10:51:34.846Z,85663.91
2023-05-16T10:54:15.004Z,85587.69
2023-05-16T10:56:43.546Z,85671.78
2023-05-16T10:59:24.500Z,85633.63
2023-05-16T11:01:56.619Z,85631.28
2023-05-16T11:04:24.193Z,85510.03
2023-05-16T11:06:53.227Z,85669.13
2023-05-16T11:09:27.857Z,85599.88
2023-05-16T11:11:59.410Z,85675.03
2023-05-16T11:14:32.678Z,85665.75
2023-05-16T11:17:16.545Z,85660.84
2023-05-16T11:19:47.521Z,85611.91
2023-05-16T11:22:35.169Z,85657.56
2023-05-16T11:25:03.478Z,85662.19
2023-05-16T11:27:42.106Z,85649.78
2023-05-16T11:30:15.619Z,85631.00
2023-05-16T11:32:45.472Z,85643.28
2023-05-16T11:35:15.612Z,85638.75
2023-05-16T11:37:44.342Z,85672.69
2023-05-16T11:40:13.854Z,85597.72
2023-05-16T11:42:46.439Z,85686.91
2023-05-16T11:45:25.816Z,85600.75
2023-05-16T11:47:53.244Z,85672.69
2023-05-16T11:50:26.600Z,85658.16
2023-05-16T11:52:56.445Z,85637.84
2023-05-16T11:55:40.467Z,85636.59
2023-05-16T11:58:10.470Z,85649.91
2023-05-16T12:00:37.677Z,85615.41
2023-05-16T12:03:06.187Z,85669.06
2023-05-16T12:05:35.291Z,85622.88
2023-05-16T12:08:05.816Z,85516.59
2023-05-16T12:10:34.958Z,85514.75
2023-05-16T12:13:03.881Z,85646.09
2023-05-16T12:15:31.493Z,85671.69
2023-05-16T12:17:59.593Z,85564.81
2023-05-16T12:20:27.057Z,85617.34
2023-05-16T12:22:58.145Z,85581.03
2023-05-16T12:25:29.832Z,85509.47
2023-05-16T12:28:02.159Z,85622.41
2023-05-16T12:30:31.736Z,85632.41
2023-05-16T12:33:07.987Z,85568.13
2023-05-16T12:35:38.139Z,85617.59
2023-05-16T12:38:07.058Z,85622.97
2023-05-16T12:40:34.513Z,85565.78
2023-05-16T12:43:01.652Z,85533.69
2023-05-16T12:45:29.357Z,85605.94
2023-05-16T12:47:56.599Z,85579.69
2023-05-16T12:50:26.848Z,85574.50
2023-05-16T12:52:59.292Z,85619.25
2023-05-16T12:55:29.915Z,85591.53
2023-05-16T12:57:58.317Z,85577.31
2023-05-16T13:00:25.679Z,85598.19
2023-05-16T13:02:53.198Z,85605.75
2023-05-16T13:05:22.450Z,85596.25
2023-05-16T13:07:51.701Z,85591.56
2023-05-16T13:10:19.381Z,85567.44
2023-05-16T13:12:47.458Z,85526.06
2023-05-16T13:15:15.356Z,85588.03
2023-05-16T13:17:47.749Z,85548.16
2023-05-16T13:20:16.299Z,85456.81
2023-05-16T13:22:44.055Z,85569.53
2023-05-16T13:25:11.868Z,85584.53
2023-05-16T13:27:40.489Z,85575.75
2023-05-16T13:30:08.156Z,85545.44
2023-05-16T13:32:35.435Z,85542.84
2023-05-16T13:35:04.311Z,85526.31
2023-05-16T13:37:31.970Z,85610.94
2023-05-16T13:39:59.279Z,85510.06
2023-05-16T13:42:26.488Z,85556.72
2023-05-16T13:44:53.597Z,85590.28
2023-05-16T13:47:21.066Z,85580.34
2023-05-16T13:49:49.175Z,85594.50
2023-05-16T13:52:16.589Z,85480.25
2023-05-16T13:54:43.635Z,85603.91
2023-05-16T13:57:10.847Z,85590.03
2023-05-16T14:00:05.664Z,85578.97
2023-05-16T14:02:26.519Z,85571.69
2023-05-16T14:04:54.369Z,85607.75
2023-05-16T14:07:21.427Z,85619.50
2023-05-16T14:09:48.467Z,85613.69
2023-05-16T14:12:15.693Z,85583.97
2023-05-16T14:14:42.793Z,85561.38
2023-05-16T14:17:09.946Z,85595.38
2023-05-16T14:19:37.414Z,85615.78
2023-05-16T14:22:04.546Z,85642.13
2023-05-16T14:24:31.593Z,85634.69
2023-05-16T14:26:58.605Z,85637.41
2023-05-16T14:29:25.937Z,85592.16
2023-05-16T14:31:54.401Z,85592.44
2023-05-16T14:34:22.548Z,85577.56
2023-05-16T14:36:51.019Z,85630.75
2023-05-16T14:39:18.128Z,85624.47
2023-05-16T14:41:45.223Z,85651.31
2023-05-16T14:44:12.840Z,85622.63
2023-05-16T14:46:40.232Z,85656.59
2023-05-16T14:49:07.667Z,85607.19
2023-05-16T14:51:34.682Z,85637.94
2023-05-16T14:54:01.824Z,85588.31
2023-05-16T14:56:28.929Z,85645.69
2023-05-16T14:58:56.291Z,85631.31
2023-05-16T15:01:23.395Z,85645.38
2023-05-16T15:03:55.529Z,85585.81
2023-05-16T15:06:24.703Z,85605.06
2023-05-16T15:08:52.080Z,85499.31
2023-05-16T15:11:19.615Z,85600.50
2023-05-16T15:13:46.876Z,85591.22
2023-05-16T15:16:14.233Z,85612.94
2023-05-16T15:18:41.974Z,85618.84
2023-05-16T15:21:09.496Z,85577.47
2023-05-16T15:23:36.838Z,85569.91
2023-05-16T15:26:04.724Z,85626.56
2023-05-16T15:28:31.895Z,85594.97
2023-05-16T15:30:58.913Z,85573.38
2023-05-16T15:33:27.653Z,85626.06
2023-05-16T15:35:54.723Z,85618.59
2023-05-16T15:38:21.976Z,85583.66
2023-05-16T15:40:55.053Z,85572.94
2023-05-16T15:43:28.615Z,85576.69
2023-05-16T15:45:55.771Z,85550.25
2023-05-16T15:48:22.932Z,85546.28
2023-05-16T15:50:50.006Z,85546.16
2023-05-16T15:53:17.075Z,85631.38
2023-05-16T15:55:44.188Z,85581.66
2023-05-16T15:58:11.236Z,85541.59
2023-05-16T16:00:39.468Z,85640.34
2023-05-16T16:03:07.108Z,85621.16
2023-05-16T16:05:34.330Z,85643.91
2023-05-16T16:08:01.449Z,85481.44
2023-05-16T16:10:28.561Z,85455.19
2023-05-16T16:13:05.236Z,85641.56
2023-05-16T16:15:33.673Z,85596.91
2023-05-16T16:18:01.565Z,85552.09
2023-05-16T16:20:28.875Z,85619.97
2023-05-16T16:22:56.337Z,85585.50
2023-05-16T16:25:23.568Z,85613.16
2023-05-16T16:27:51.368Z,85641.53
2023-05-16T16:30:18.734Z,85607.97
2023-05-16T16:32:48.840Z,85511.66
2023-05-16T16:35:16.306Z,85570.84
2023-05-16T16:37:51.632Z,85601.75
2023-05-16T16:40:30.795Z,85650.16
2023-05-16T16:42:58.048Z,85628.75
2023-05-16T16:45:25.549Z,85605.47
2023-05-16T16:47:53.412Z,85647.13
2023-05-16T16:50:20.636Z,85665.56
2023-05-16T16:52:47.950Z,85665.47
2023-05-16T16:55:15.168Z,85623.25
2023-05-16T16:57:42.735Z,85662.66
2023-05-16T17:00:14.369Z,85661.47
2023-05-16T17:02:41.794Z,85653.47
2023-05-16T17:05:10.431Z,85605.13
2023-05-16T17:07:37.654Z,85618.59
2023-05-16T17:10:05.276Z,85658.16
2023-05-16T17:12:34.539Z,85581.19
2023-05-16T17:15:02.426Z,85655.59
2023-05-16T17:17:29.612Z,85544.16
2023-05-16T17:19:56.932Z,85620.56
2023-05-16T17:22:23.971Z,85667.03
2023-05-16T17:24:50.996Z,85623.03
2023-05-16T17:27:18.157Z,85674.13
2023-05-16T17:29:45.210Z,85646.94
2023-05-16T17:32:12.358Z,85684.63
2023-05-16T17:34:39.301Z,85696.66
2023-05-16T17:37:11.569Z,85644.56
2023-05-16T17:39:38.878Z,85680.69
2023-05-16T17:42:06.206Z,85673.97
2023-05-16T17:44:33.259Z,85668.72
2023-05-16T17:47:00.435Z,85615.41
2023-05-16T17:49:27.608Z,85631.53
2023-05-16T17:51:56.854Z,85674.38
2023-05-16T17:54:24.346Z,85673.25
2023-05-16T17:56:51.475Z,85633.97
2023-05-16T17:59:19.177Z,85621.78
2023-05-16T18:01:46.754Z,85698.97
2023-05-16T18:04:14.603Z,85671.06
2023-05-16T18:06:42.099Z,85704.22
2023-05-16T18:09:10.522Z,85608.50
2023-05-16T18:11:40.731Z,85639.13
2023-05-16T18:14:12.965Z,85622.28
2023-05-16T18:16:40.164Z,85606.06
2023-05-16T18:19:08.850Z,85569.28
2023-05-16T18:21:37.625Z,85675.50
2023-05-16T18:24:05.423Z,85679.03
2023-05-16T18:26:32.475Z,85668.28
2023-05-16T18:28:59.586Z,85654.94
2023-05-16T18:31:26.871Z,85603.53
2023-05-16T18:33:54.006Z,85618.31
2023-05-16T18:36:21.161Z,85592.50
2023-05-16T18:38:48.218Z,85611.97
2023-05-16T18:41:17.844Z,85660.91
2023-05-16T18:43:44.752Z,85655.75
2023-05-16T18:46:11.859Z,85652.13
2023-05-16T18:48:38.852Z,85637.78
2023-05-16T18:51:06.400Z,85617.00
2023-05-16T18:53:33.502Z,85610.97
2023-05-16T18:56:00.657Z,85554.78
2023-05-16T18:58:27.823Z,85588.75
2023-05-16T19:00:54.795Z,85572.44
2023-05-16T19:03:22.049Z,85636.00
2023-05-16T19:05:49.581Z,85615.63
2023-05-16T19:08:16.770Z,85593.09
2023-05-16T19:10:43.906Z,85559.44
2023-05-16T19:13:10.940Z,85607.44
2023-05-16T19:15:38.628Z,85547.78
2023-05-16T19:18:06.701Z,85563.94
2023-05-16T19:20:34.967Z,85553.34
2023-05-16T19:23:03.443Z,85624.41
2023-05-16T19:25:30.774Z,85575.31
2023-05-16T19:27:57.802Z,85626.13
2023-05-16T19:30:25.397Z,85617.06
2023-05-16T19:32:52.735Z,85644.06
2023-05-16T19:35:19.944Z,85644.72
2023-05-16T19:37:47.114Z,85573.50
2023-05-16T19:40:16.983Z,85645.72
2023-05-16T19:42:44.388Z,85575.44
2023-05-16T19:45:11.775Z,85595.63
2023-05-16T19:47:39.004Z,85639.31
2023-05-16T19:50:07.196Z,85628.00
2023-05-16T19:52:34.919Z,85556.97
2023-05-16T19:55:02.920Z,85637.00
2023-05-16T19:57:30.275Z,85634.16
2023-05-16T19:59:57.483Z,85595.03
2023-05-16T20:02:24.849Z,85607.72
2023-05-16T20:04:52.115Z,85636.97
2023-05-16T20:07:19.337Z,85642.53
2023-05-16T20:09:46.397Z,85632.59
2023-05-16T20:12:13.608Z,85602.78
2023-05-16T20:14:40.755Z,85642.63
2023-05-16T20:17:07.846Z,85640.09
2023-05-16T20:19:36.645Z,85630.75
2023-05-16T20:22:03.877Z,85671.69
2023-05-16T20:24:30.914Z,85657.13
2023-05-16T20:27:01.984Z,85603.34
2023-05-16T20:29:31.331Z,85638.81
2023-05-16T20:31:58.365Z,85539.00
2023-05-16T20:34:26.332Z,85572.66
2023-05-16T20:36:53.470Z,85578.78
2023-05-16T20:39:20.674Z,85430.13
2023-05-16T20:41:47.839Z,85567.53
2023-05-16T20:44:15.876Z,85533.53
2023-05-16T20:46:43.451Z,85561.34
2023-05-16T20:49:10.896Z,85601.41
2023-05-16T20:51:38.659Z,85593.44
2023-05-16T20:54:05.820Z,85571.97
2023-05-16T20:56:33.151Z,85557.44
2023-05-16T20:59:00.553Z,85585.34
2023-05-16T21:01:27.664Z,85607.53
2023-05-16T21:03:54.632Z,85618.19
2023-05-16T21:06:21.695Z,85564.38
2023-05-16T21:08:48.750Z,85612.25
2023-05-16T21:11:16.056Z,85525.31
2023-05-16T21:13:43.161Z,85571.94
2023-05-16T21:16:10.272Z,85594.84
2023-05-16T21:18:37.718Z,85398.88
2023-05-16T21:21:04.932Z,85565.44
2023-05-16T21:23:32.027Z,85470.66
2023-05-16T21:25:58.982Z,85521.13
2023-05-16T21:28:31.148Z,85562.84
2023-05-16T21:30:59.944Z,85563.53
2023-05-16T21:33:26.992Z,85506.78
2023-05-16T21:35:55.357Z,85490.81
2023-05-16T21:38:22.497Z,85477.81
2023-05-16T21:40:49.639Z,85521.00
2023-05-16T21:43:17.157Z,85523.56
2023-05-16T21:45:44.238Z,85471.84
2023-05-16T21:48:11.404Z,85506.66
2023-05-16T21:50:38.595Z,85565.69
2023-05-16T21:53:05.585Z,85580.91
2023-05-16T21:55:32.580Z,85532.94
2023-05-16T21:57:59.562Z,85518.13
2023-05-16T22:00:26.633Z,85551.50
2023-05-16T22:02:53.874Z,85562.53
2023-05-16T22:05:21.207Z,85446.47
2023-05-16T22:07:48.375Z,85354.09
2023-05-16T22:10:16.984Z,85538.47
2023-05-16T22:12:47.585Z,85353.50
2023-05-16T22:15:14.536Z,85548.03
2023-05-16T22:17:42.051Z,85508.44
2023-05-16T22:20:09.776Z,85433.63
2023-05-16T22:22:37.411Z,85541.53
2023-05-16T22:25:05.416Z,85531.00
2023-05-16T22:27:32.469Z,85380.34
2023-05-16T22:29:59.635Z,85437.63
2023-05-16T22:32:28.243Z,85504.09
2023-05-16T22:34:58.325Z,85484.84
2023-05-16T22:37:25.529Z,85515.16
2023-05-16T22:39:53.508Z,85481.72
2023-05-16T22:42:20.504Z,85416.28
2023-05-16T22:44:48.082Z,85515.16
2023-05-16T22:47:15.287Z,85473.56
2023-05-16T22:49:42.385Z,85489.34
2023-05-16T22:52:09.468Z,85471.38
2023-05-16T22:54:36.594Z,85385.28
2023-05-16T22:57:07.052Z,85305.13
2023-05-16T22:59:34.386Z,85492.47
2023-05-16T23:02:01.607Z,85414.13
2023-05-16T23:04:28.709Z,85494.09
2023-05-16T23:06:55.796Z,85443.94
2023-05-16T23:09:23.401Z,85426.31
2023-05-16T23:11:50.766Z,85446.53
2023-05-16T23:14:17.852Z,85432.19
2023-05-16T23:16:44.910Z,85426.44
2023-05-16T23:19:12.233Z,85306.84
2023-05-16T23:21:40.250Z,85321.69
2023-05-16T23:24:07.372Z,85439.84
2023-05-16T23:26:34.535Z,85482.13
2023-05-16T23:29:04.592Z,85478.66
2023-05-16T23:31:34.492Z,85441.66
2023-05-16T23:34:01.985Z,85395.72
2023-05-16T23:36:29.347Z,85487.97
2023-05-16T23:38:56.523Z,85425.34
2023-05-16T23:41:23.854Z,85403.53
2023-05-16T23:43:51.010Z,85367.00
2023-05-16T23:46:18.139Z,85506.34
2023-05-16T23:48:45.330Z,85472.81
2023-05-16T23:51:12.359Z,85426.59
2023-05-16T23:53:39.400Z,85434.34
2023-05-16T23:56:06.541Z,85443.88
2023-05-16T23:58:33.904Z,85335.84
